Alna, Maine
Current Conditions -  °F | °C
As of 1:53 PM on Friday 21 Nov 2014 (Local Time) from KIWI Reporting Station
Clear Clear  
Wind Chill: 26°   Ceiling: Unl
Heat Index: 32°   Visibility: 10mi
Dew Point:   Wind: 7mph
Humidity: 34%   Direction: NA
Pressure: 30.08"   Gusts: 23mph
Location:  44.11°N, 69.6°W
Report Text: KIWI 211853Z AUTO VRB06G20KT 10SM CLR 00/M14 A3008 RMK AO2 SLP187 T00001144
Loading
Personal Weather Stations






























Interactive Weather Map New forecast layout! Learn more

10-Day Weather Forecast

Advertisements
Track Severe Weather on mobile